createdAt,value
2022-11-24T00:00:39.416Z,91.81
2022-11-24T00:01:29.116Z,91.87
2022-11-24T00:02:15.687Z,91.89
2022-11-24T00:03:04.711Z,91.87
2022-11-24T00:03:59.998Z,91.94
2022-11-24T00:04:46.439Z,91.99
2022-11-24T00:05:38.324Z,91.90
2022-11-24T00:06:26.384Z,92.12
2022-11-24T00:07:12.871Z,91.92
2022-11-24T00:07:59.480Z,91.90
2022-11-24T00:08:46.781Z,91.96
2022-11-24T00:09:33.205Z,92.01
2022-11-24T00:10:19.642Z,92.09
2022-11-24T00:11:09.108Z,91.88
2022-11-24T00:11:55.591Z,92.09
2022-11-24T00:12:42.235Z,92.05
2022-11-24T00:13:28.775Z,92.13
2022-11-24T00:14:15.233Z,92.32
2022-11-24T00:15:01.905Z,92.21
2022-11-24T00:15:48.346Z,92.20
2022-11-24T00:16:37.499Z,91.96
2022-11-24T00:17:24.234Z,92.06
2022-11-24T00:18:10.685Z,92.21
2022-11-24T00:19:00.137Z,92.08
2022-11-24T00:19:46.736Z,92.15
2022-11-24T00:20:34.749Z,92.09
2022-11-24T00:21:23.214Z,92.18
2022-11-24T00:22:09.838Z,92.10
2022-11-24T00:22:56.478Z,92.35
2022-11-24T00:23:43.616Z,92.25
2022-11-24T00:24:30.204Z,92.35
2022-11-24T00:25:17.089Z,92.09
2022-11-24T00:26:07.947Z,92.22
2022-11-24T00:26:54.706Z,92.17
2022-11-24T00:27:41.228Z,92.13
2022-11-24T00:28:27.779Z,92.17
2022-11-24T00:29:14.353Z,92.15
2022-11-24T00:30:01.001Z,92.09
2022-11-24T00:30:47.823Z,92.16
2022-11-24T00:31:38.111Z,92.27
2022-11-24T00:32:24.914Z,92.21
2022-11-24T00:33:11.834Z,92.21
2022-11-24T00:34:00.993Z,92.21
2022-11-24T00:34:47.624Z,92.29
2022-11-24T00:35:34.551Z,92.38
2022-11-24T00:36:23.842Z,92.36
2022-11-24T00:37:10.303Z,92.29
2022-11-24T00:37:56.760Z,92.39
2022-11-24T00:38:46.248Z,92.27
2022-11-24T00:39:32.768Z,92.36
2022-11-24T00:40:19.349Z,92.50
2022-11-24T00:41:06.366Z,92.43
2022-11-24T00:41:52.835Z,92.39
2022-11-24T00:42:40.751Z,92.37
2022-11-24T00:43:27.346Z,92.41
2022-11-24T00:44:13.893Z,92.27
2022-11-24T00:45:02.110Z,92.25
2022-11-24T00:45:53.718Z,92.52
2022-11-24T00:46:40.570Z,92.33
2022-11-24T00:47:28.713Z,92.19
2022-11-24T00:48:16.842Z,92.33
2022-11-24T00:49:03.629Z,92.52
2022-11-24T00:49:51.323Z,92.33
2022-11-24T00:50:37.799Z,92.35
2022-11-24T00:51:30.560Z,92.53
2022-11-24T00:52:17.072Z,92.54
2022-11-24T00:53:03.543Z,92.53
2022-11-24T00:53:50.582Z,92.46
2022-11-24T00:54:37.041Z,92.42
2022-11-24T00:55:23.477Z,92.43
2022-11-24T00:56:11.498Z,92.43
2022-11-24T00:56:57.959Z,92.31
2022-11-24T00:57:44.555Z,92.35
2022-11-24T00:58:32.322Z,92.54
2022-11-24T00:59:18.768Z,92.48
2022-11-24T01:00:06.200Z,92.34
2022-11-24T01:00:53.206Z,92.32
2022-11-24T01:01:39.962Z,92.47
2022-11-24T01:02:26.936Z,92.65
2022-11-24T01:03:14.770Z,92.56
2022-11-24T01:04:02.188Z,92.30
2022-11-24T01:04:48.864Z,92.46
2022-11-24T01:05:38.794Z,92.39
2022-11-24T01:06:26.383Z,92.52
2022-11-24T01:07:12.910Z,92.42
2022-11-24T01:07:59.369Z,92.44
2022-11-24T01:08:46.445Z,92.36
2022-11-24T01:09:33.002Z,92.48
2022-11-24T01:10:19.667Z,92.58
2022-11-24T01:11:08.686Z,92.41
2022-11-24T01:12:01.408Z,92.37
2022-11-24T01:12:47.943Z,92.43
2022-11-24T01:13:34.748Z,92.45
2022-11-24T01:14:22.960Z,92.40
2022-11-24T01:15:09.454Z,92.54
2022-11-24T01:15:56.239Z,92.24
2022-11-24T01:16:42.885Z,92.47
2022-11-24T01:17:29.393Z,92.50
2022-11-24T01:18:20.301Z,92.41
2022-11-24T01:19:06.813Z,92.46
2022-11-24T01:19:53.266Z,92.42
2022-11-24T01:20:39.836Z,92.43
2022-11-24T01:21:26.810Z,92.69
2022-11-24T01:22:13.793Z,92.59
2022-11-24T01:23:00.475Z,92.51
2022-11-24T01:23:47.060Z,92.46
2022-11-24T01:24:33.957Z,92.59
2022-11-24T01:25:20.570Z,92.48
2022-11-24T01:26:10.220Z,92.72
2022-11-24T01:26:56.877Z,92.72
2022-11-24T01:27:43.547Z,92.59
2022-11-24T01:28:30.099Z,92.78
2022-11-24T01:29:17.013Z,92.70
2022-11-24T01:30:05.427Z,92.56
2022-11-24T01:31:03.700Z,92.62
2022-11-24T01:31:50.428Z,92.84
2022-11-24T01:32:37.295Z,92.80
2022-11-24T01:33:23.989Z,92.76
2022-11-24T01:34:10.739Z,92.84
2022-11-24T01:34:57.301Z,92.74
2022-11-24T01:35:43.976Z,92.65
2022-11-24T01:36:30.461Z,92.59
2022-11-24T01:37:17.240Z,92.78
2022-11-24T01:38:03.953Z,92.58
2022-11-24T01:38:50.959Z,92.57
2022-11-24T01:39:37.681Z,92.60
2022-11-24T01:40:24.241Z,92.62
2022-11-24T01:41:14.512Z,92.85
2022-11-24T01:42:01.772Z,92.71
2022-11-24T01:42:51.824Z,92.75
2022-11-24T01:43:39.192Z,92.57
2022-11-24T01:44:29.315Z,92.63
2022-11-24T01:45:42.440Z,92.49
2022-11-24T01:46:38.795Z,92.58
2022-11-24T01:47:38.640Z,92.71
2022-11-24T01:48:36.578Z,92.58
2022-11-24T01:49:32.711Z,92.70
2022-11-24T01:50:19.252Z,92.81
2022-11-24T01:51:15.005Z,92.58
2022-11-24T01:52:13.624Z,92.38
2022-11-24T01:53:00.311Z,92.75
2022-11-24T01:54:00.909Z,92.54
2022-11-24T01:54:54.658Z,92.50
2022-11-24T01:55:41.770Z,92.58
2022-11-24T01:56:30.251Z,92.62
2022-11-24T01:57:24.688Z,92.77
2022-11-24T01:58:18.797Z,92.68
2022-11-24T01:59:10.523Z,92.76
2022-11-24T02:00:02.384Z,92.82
2022-11-24T02:01:00.513Z,92.88
2022-11-24T02:01:51.284Z,92.79
2022-11-24T02:02:39.329Z,92.73
2022-11-24T02:03:32.537Z,92.69
2022-11-24T02:04:26.961Z,92.83
2022-11-24T02:05:25.125Z,92.76
2022-11-24T02:06:16.348Z,92.70
2022-11-24T02:07:06.729Z,92.86
2022-11-24T02:07:56.882Z,92.86
2022-11-24T02:08:49.296Z,92.95
2022-11-24T02:09:54.832Z,93.02
2022-11-24T02:10:42.670Z,92.98
2022-11-24T02:11:35.815Z,92.92
2022-11-24T02:12:25.129Z,92.80
2022-11-24T02:13:14.246Z,93.05
2022-11-24T02:14:01.109Z,93.09
2022-11-24T02:14:48.024Z,93.02
2022-11-24T02:15:35.695Z,93.01
2022-11-24T02:16:22.774Z,92.85
2022-11-24T02:17:09.441Z,93.11
2022-11-24T02:17:55.927Z,92.93
2022-11-24T02:18:43.916Z,93.13
2022-11-24T02:19:33.398Z,93.00
2022-11-24T02:20:20.523Z,93.02
2022-11-24T02:21:07.990Z,93.17
2022-11-24T02:21:54.514Z,93.23
2022-11-24T02:23:02.640Z,93.28
2022-11-24T02:24:03.757Z,93.19
2022-11-24T02:24:58.842Z,93.16
2022-11-24T02:26:04.552Z,93.30
2022-11-24T02:26:52.542Z,93.04
2022-11-24T02:27:39.301Z,93.20
2022-11-24T02:28:30.737Z,93.23
2022-11-24T02:29:17.642Z,93.17
2022-11-24T02:30:04.723Z,93.12
2022-11-24T02:30:53.494Z,93.30
2022-11-24T02:31:49.799Z,93.21
2022-11-24T02:32:41.994Z,93.04
2022-11-24T02:33:29.387Z,93.28
2022-11-24T02:34:16.185Z,93.07
2022-11-24T02:35:05.958Z,93.23
2022-11-24T02:35:52.879Z,93.39
2022-11-24T02:36:39.591Z,93.31
2022-11-24T02:37:26.190Z,93.10
2022-11-24T02:38:13.904Z,93.12
2022-11-24T02:39:00.370Z,93.28
2022-11-24T02:39:46.840Z,93.18
2022-11-24T02:40:33.454Z,93.19
2022-11-24T02:41:25.363Z,92.90
2022-11-24T02:42:13.869Z,92.99
2022-11-24T02:43:08.111Z,93.03
2022-11-24T02:43:57.241Z,92.92
2022-11-24T02:44:51.193Z,92.96
2022-11-24T02:45:37.882Z,93.17
2022-11-24T02:46:24.655Z,92.99
2022-11-24T02:47:12.807Z,93.26
2022-11-24T02:47:59.464Z,93.12
2022-11-24T02:48:46.524Z,92.93
2022-11-24T02:49:33.099Z,93.02
2022-11-24T02:50:19.761Z,92.80
2022-11-24T02:51:06.380Z,93.21
2022-11-24T02:51:53.049Z,93.11
2022-11-24T02:52:39.605Z,93.00
2022-11-24T02:53:26.141Z,92.93
2022-11-24T02:54:12.608Z,92.88
2022-11-24T02:54:59.037Z,92.69
2022-11-24T02:55:45.630Z,92.98
2022-11-24T02:56:32.142Z,92.96
2022-11-24T02:57:18.797Z,92.83
2022-11-24T02:58:05.303Z,92.72
2022-11-24T02:58:51.747Z,92.94
2022-11-24T02:59:38.267Z,92.85
2022-11-24T03:00:25.168Z,92.81
2022-11-24T03:01:11.712Z,92.93
2022-11-24T03:01:58.543Z,92.80
2022-11-24T03:02:45.291Z,92.88
2022-11-24T03:03:32.179Z,92.91
2022-11-24T03:04:18.759Z,93.19
2022-11-24T03:05:05.642Z,92.94
2022-11-24T03:05:52.169Z,93.21
2022-11-24T03:06:39.365Z,93.04
2022-11-24T03:07:25.986Z,93.10
2022-11-24T03:08:13.147Z,93.01
2022-11-24T03:08:59.694Z,92.93
2022-11-24T03:09:46.442Z,93.14
2022-11-24T03:10:33.044Z,93.20
2022-11-24T03:11:19.535Z,93.18
2022-11-24T03:12:06.404Z,93.08
2022-11-24T03:12:52.919Z,93.11
2022-11-24T03:13:39.413Z,93.10
2022-11-24T03:14:26.108Z,93.00
2022-11-24T03:15:12.806Z,93.12
2022-11-24T03:15:59.479Z,93.06
2022-11-24T03:16:45.986Z,93.22
2022-11-24T03:17:32.479Z,93.08
2022-11-24T03:18:18.989Z,93.35
2022-11-24T03:19:05.938Z,93.22
2022-11-24T03:19:52.591Z,93.21
2022-11-24T03:20:39.087Z,93.37
2022-11-24T03:21:25.587Z,93.31
2022-11-24T03:22:15.749Z,93.24
2022-11-24T03:23:02.508Z,93.14
2022-11-24T03:23:49.046Z,93.31
2022-11-24T03:24:35.970Z,93.25
2022-11-24T03:25:22.802Z,93.09
2022-11-24T03:26:12.984Z,93.21
2022-11-24T03:26:59.473Z,93.41
2022-11-24T03:27:46.969Z,93.20
2022-11-24T03:28:33.409Z,93.23
2022-11-24T03:29:20.176Z,93.14
2022-11-24T03:30:07.482Z,93.20
2022-11-24T03:30:53.972Z,93.30
2022-11-24T03:31:40.617Z,93.25
2022-11-24T03:32:27.337Z,93.19
2022-11-24T03:33:13.749Z,93.15
2022-11-24T03:34:00.451Z,93.25
2022-11-24T03:34:47.244Z,93.17
2022-11-24T03:35:33.720Z,93.22
2022-11-24T03:36:20.177Z,93.32
2022-11-24T03:37:07.668Z,93.36
2022-11-24T03:37:54.212Z,93.28
2022-11-24T03:38:40.810Z,93.32
2022-11-24T03:39:27.602Z,93.44
2022-11-24T03:40:14.446Z,93.32
2022-11-24T03:41:00.946Z,93.42
2022-11-24T03:41:47.478Z,93.33
2022-11-24T03:42:34.578Z,93.40
2022-11-24T03:43:21.545Z,93.47
2022-11-24T03:44:07.996Z,93.32
2022-11-24T03:44:54.544Z,93.63
2022-11-24T03:45:48.301Z,93.53
2022-11-24T03:46:34.902Z,93.56
2022-11-24T03:47:21.378Z,93.68
2022-11-24T03:48:07.967Z,93.51
2022-11-24T03:48:54.491Z,93.65
2022-11-24T03:49:41.682Z,93.54
2022-11-24T03:50:29.097Z,93.33
2022-11-24T03:51:15.661Z,93.39
2022-11-24T03:52:07.647Z,93.23
2022-11-24T03:52:54.769Z,93.16
2022-11-24T03:53:41.396Z,93.23
2022-11-24T03:54:27.958Z,93.42
2022-11-24T03:55:14.492Z,93.38
2022-11-24T03:56:02.281Z,93.12
2022-11-24T03:56:49.012Z,93.10
2022-11-24T03:57:35.788Z,93.22
2022-11-24T03:58:22.841Z,93.01
2022-11-24T03:59:09.337Z,92.89
2022-11-24T03:59:55.947Z,93.05
2022-11-24T04:00:42.463Z,92.84
2022-11-24T04:01:29.363Z,93.01
2022-11-24T04:02:16.045Z,92.81
2022-11-24T04:03:03.057Z,93.04
2022-11-24T04:03:49.636Z,92.98
2022-11-24T04:04:36.312Z,92.75
2022-11-24T04:05:23.055Z,93.00
2022-11-24T04:06:09.700Z,92.85
2022-11-24T04:06:56.585Z,92.78
2022-11-24T04:07:43.378Z,92.30
2022-11-24T04:08:30.110Z,92.13
2022-11-24T04:09:16.638Z,92.22
2022-11-24T04:10:03.389Z,92.31
2022-11-24T04:10:52.184Z,92.32
2022-11-24T04:11:57.167Z,92.19
2022-11-24T04:12:46.255Z,91.44
2022-11-24T04:13:32.957Z,91.67
2022-11-24T04:14:19.686Z,91.63
2022-11-24T04:15:06.865Z,91.39
2022-11-24T04:15:53.873Z,91.37
2022-11-24T04:16:41.473Z,91.46
2022-11-24T04:17:28.807Z,91.50
2022-11-24T04:18:16.006Z,91.52
2022-11-24T04:19:03.163Z,91.52
2022-11-24T04:19:50.201Z,91.64
2022-11-24T04:20:37.214Z,91.42
2022-11-24T04:21:24.131Z,91.31
2022-11-24T04:22:11.224Z,90.97
2022-11-24T04:22:58.947Z,91.15
2022-11-24T04:23:45.827Z,91.02
2022-11-24T04:24:33.123Z,91.29
2022-11-24T04:25:19.774Z,91.22
2022-11-24T04:26:06.322Z,91.38
2022-11-24T04:26:52.870Z,91.46
2022-11-24T04:27:39.504Z,91.44
2022-11-24T04:28:26.111Z,91.57
2022-11-24T04:29:13.070Z,91.64
2022-11-24T04:29:59.756Z,91.59
2022-11-24T04:30:46.429Z,91.45
2022-11-24T04:31:33.180Z,91.41
2022-11-24T04:32:19.885Z,91.34
2022-11-24T04:33:06.885Z,91.62
2022-11-24T04:33:53.416Z,91.54
2022-11-24T04:34:41.535Z,91.60
2022-11-24T04:35:28.387Z,91.75
2022-11-24T04:36:14.896Z,91.85
2022-11-24T04:37:01.712Z,91.57
2022-11-24T04:37:48.556Z,91.76
2022-11-24T04:39:19.845Z,91.73
2022-11-24T04:39:42.018Z,91.77
2022-11-24T04:40:28.535Z,91.62
2022-11-24T04:41:15.343Z,91.67
2022-11-24T04:42:04.306Z,91.69
2022-11-24T04:42:53.980Z,91.82
2022-11-24T04:43:40.968Z,91.63
2022-11-24T04:44:27.959Z,91.49
2022-11-24T04:45:14.445Z,91.70
2022-11-24T04:46:01.788Z,91.70
2022-11-24T04:46:48.263Z,91.77
2022-11-24T04:47:34.956Z,91.83
2022-11-24T04:48:22.231Z,91.81
2022-11-24T04:49:13.593Z,91.86
2022-11-24T04:50:00.350Z,91.87
2022-11-24T04:50:47.474Z,91.62
2022-11-24T04:51:34.094Z,91.75
2022-11-24T04:52:22.779Z,91.61
2022-11-24T04:53:11.159Z,91.64
2022-11-24T04:53:57.790Z,91.68
2022-11-24T04:54:44.230Z,91.86
2022-11-24T04:55:30.791Z,91.93
2022-11-24T04:56:17.251Z,91.84
2022-11-24T04:57:04.035Z,91.58
2022-11-24T04:57:50.729Z,91.47
2022-11-24T04:58:37.227Z,91.22
2022-11-24T04:59:23.655Z,91.24
2022-11-24T05:00:11.066Z,91.59
2022-11-24T05:00:57.693Z,91.61
2022-11-24T05:01:46.036Z,91.55
2022-11-24T05:02:33.773Z,91.69
2022-11-24T05:03:20.856Z,91.56
2022-11-24T05:04:07.353Z,91.44
2022-11-24T05:04:54.004Z,91.73
2022-11-24T05:05:40.635Z,91.44
2022-11-24T05:06:27.060Z,91.75
2022-11-24T05:07:19.288Z,91.66
2022-11-24T05:08:06.062Z,91.75
2022-11-24T05:08:53.224Z,91.46
2022-11-24T05:09:59.970Z,91.79
2022-11-24T05:10:47.437Z,91.67
2022-11-24T05:11:34.349Z,91.68
2022-11-24T05:12:20.803Z,91.40
2022-11-24T05:13:11.528Z,91.52
2022-11-24T05:13:58.033Z,91.43
2022-11-24T05:14:44.444Z,91.47
2022-11-24T05:15:31.688Z,91.61
2022-11-24T05:16:18.291Z,91.65
2022-11-24T05:17:04.728Z,91.40
2022-11-24T05:17:51.312Z,91.59
2022-11-24T05:18:38.071Z,91.59
2022-11-24T05:19:27.317Z,91.63
2022-11-24T05:20:16.514Z,91.71
2022-11-24T05:21:03.273Z,91.67
2022-11-24T05:21:49.763Z,91.63
2022-11-24T05:22:36.617Z,91.50
2022-11-24T05:23:23.087Z,91.42
2022-11-24T05:24:10.874Z,91.14
2022-11-24T05:24:58.203Z,91.38
2022-11-24T05:25:47.600Z,91.32
2022-11-24T05:26:35.483Z,91.46
2022-11-24T05:27:21.939Z,91.32
2022-11-24T05:28:09.997Z,91.24
2022-11-24T05:28:56.605Z,91.35
2022-11-24T05:29:43.082Z,91.32
2022-11-24T05:30:30.092Z,91.58
2022-11-24T05:31:16.829Z,91.23
2022-11-24T05:32:03.701Z,91.14
2022-11-24T05:32:50.327Z,91.15
2022-11-24T05:33:38.170Z,91.24
2022-11-24T05:34:25.460Z,90.95
2022-11-24T05:35:12.135Z,91.11
2022-11-24T05:36:03.862Z,91.28
2022-11-24T05:36:53.382Z,91.08
2022-11-24T05:37:39.884Z,91.14
2022-11-24T05:38:26.964Z,91.17
2022-11-24T05:39:13.374Z,91.21
2022-11-24T05:39:59.989Z,91.49
2022-11-24T05:40:47.508Z,91.51
2022-11-24T05:41:33.957Z,91.43
2022-11-24T05:42:44.903Z,91.33
2022-11-24T05:43:33.791Z,91.14
2022-11-24T05:44:20.388Z,91.18
2022-11-24T05:45:13.322Z,91.13
2022-11-24T05:46:01.281Z,91.12
2022-11-24T05:46:47.850Z,91.10
2022-11-24T05:47:34.820Z,91.15
2022-11-24T05:48:21.508Z,91.15
2022-11-24T05:49:07.990Z,91.18
2022-11-24T05:49:54.689Z,91.05
2022-11-24T05:50:42.143Z,90.90
2022-11-24T05:51:28.688Z,90.81
2022-11-24T05:52:16.360Z,90.73
2022-11-24T05:53:11.360Z,90.61
2022-11-24T05:53:57.797Z,90.43
2022-11-24T05:54:44.199Z,90.29
2022-11-24T05:55:31.604Z,90.42
2022-11-24T05:56:18.268Z,90.70
2022-11-24T05:57:04.910Z,90.05
2022-11-24T05:57:58.555Z,90.45
2022-11-24T05:58:45.035Z,90.29
2022-11-24T05:59:31.687Z,89.95
2022-11-24T06:00:20.091Z,90.16
2022-11-24T06:01:21.182Z,90.02
2022-11-24T06:02:07.893Z,90.08
2022-11-24T06:02:54.656Z,89.45
2022-11-24T06:03:41.264Z,89.19
2022-11-24T06:04:28.207Z,89.00
2022-11-24T06:05:14.668Z,87.95
2022-11-24T06:06:01.409Z,86.69
2022-11-24T06:06:51.834Z,87.11
2022-11-24T06:07:38.384Z,85.18
2022-11-24T06:08:29.635Z,85.30
2022-11-24T06:09:17.528Z,85.96
2022-11-24T06:10:04.832Z,86.20
2022-11-24T06:10:51.591Z,86.15
2022-11-24T06:11:38.069Z,86.17
2022-11-24T06:12:24.541Z,86.19
2022-11-24T06:13:11.405Z,85.83
2022-11-24T06:13:58.098Z,85.83
2022-11-24T06:14:45.287Z,85.97
2022-11-24T06:15:31.933Z,86.07
2022-11-24T06:16:18.474Z,86.25
2022-11-24T06:17:06.629Z,86.26
2022-11-24T06:17:55.903Z,86.19
2022-11-24T06:18:42.488Z,86.40
2022-11-24T06:19:29.126Z,85.86
2022-11-24T06:20:15.751Z,86.39
2022-11-24T06:21:10.892Z,86.15
2022-11-24T06:21:58.018Z,84.62
2022-11-24T06:22:44.449Z,85.53
2022-11-24T06:23:31.110Z,84.96
2022-11-24T06:24:17.561Z,84.16
2022-11-24T06:25:04.342Z,84.23
2022-11-24T06:25:51.709Z,83.18
2022-11-24T06:26:38.388Z,83.82
2022-11-24T06:27:25.268Z,83.97
2022-11-24T06:28:12.291Z,83.94
2022-11-24T06:28:58.755Z,84.21
2022-11-24T06:29:45.341Z,84.20
2022-11-24T06:30:31.924Z,84.53
2022-11-24T06:31:27.372Z,84.40
2022-11-24T06:32:14.019Z,84.93
2022-11-24T06:33:00.906Z,85.20
2022-11-24T06:33:47.622Z,85.46
2022-11-24T06:34:34.392Z,85.45
2022-11-24T06:35:20.973Z,85.35
2022-11-24T06:36:12.025Z,85.03
2022-11-24T06:36:58.489Z,84.95
2022-11-24T06:37:45.821Z,85.06
2022-11-24T06:38:34.739Z,85.09
2022-11-24T06:39:23.426Z,85.31
2022-11-24T06:40:10.340Z,84.70
2022-11-24T06:41:06.889Z,84.50
2022-11-24T06:41:54.496Z,84.37
2022-11-24T06:42:41.110Z,84.66
2022-11-24T06:43:29.232Z,84.46
2022-11-24T06:44:15.742Z,84.35
2022-11-24T06:45:08.600Z,84.59
2022-11-24T06:45:56.899Z,85.00
2022-11-24T06:46:43.685Z,84.65
2022-11-24T06:47:30.120Z,84.95
2022-11-24T06:48:16.664Z,85.21
2022-11-24T06:49:03.478Z,85.20
2022-11-24T06:49:49.956Z,85.11
2022-11-24T06:50:37.435Z,85.22
2022-11-24T06:51:23.876Z,84.91
2022-11-24T06:52:10.291Z,84.64
2022-11-24T06:52:56.898Z,84.83
2022-11-24T06:53:43.313Z,85.02
2022-11-24T06:54:29.780Z,84.82
2022-11-24T06:55:16.427Z,84.65
2022-11-24T06:56:06.695Z,84.53
2022-11-24T06:56:59.028Z,84.61
2022-11-24T06:57:45.426Z,84.64
2022-11-24T06:58:31.840Z,84.75
2022-11-24T06:59:20.371Z,84.40
2022-11-24T07:00:08.455Z,84.60
2022-11-24T07:00:55.325Z,85.00
2022-11-24T07:01:41.777Z,85.14
2022-11-24T07:02:28.259Z,85.55
2022-11-24T07:03:16.979Z,85.33
2022-11-24T07:04:04.418Z,85.32
2022-11-24T07:04:50.894Z,85.24
2022-11-24T07:05:37.291Z,85.43
2022-11-24T07:06:25.905Z,85.51
2022-11-24T07:07:13.586Z,85.10
2022-11-24T07:08:00.509Z,84.79
2022-11-24T07:08:47.830Z,84.14
2022-11-24T07:09:34.280Z,84.38
2022-11-24T07:10:20.839Z,84.72
2022-11-24T07:11:09.983Z,84.81
2022-11-24T07:11:57.156Z,84.99
2022-11-24T07:12:43.790Z,85.48
2022-11-24T07:13:30.781Z,85.23
2022-11-24T07:14:17.454Z,85.26
2022-11-24T07:15:04.273Z,85.30
2022-11-24T07:15:50.976Z,85.36
2022-11-24T07:16:38.909Z,85.35
2022-11-24T07:17:25.553Z,85.28
2022-11-24T07:18:12.158Z,85.87
2022-11-24T07:18:59.877Z,85.77
2022-11-24T07:19:46.277Z,85.95
2022-11-24T07:20:32.711Z,85.88
2022-11-24T07:21:21.554Z,85.84
2022-11-24T07:22:08.047Z,84.91
2022-11-24T07:22:56.435Z,84.65
2022-11-24T07:23:43.356Z,84.88
2022-11-24T07:24:29.772Z,84.64
2022-11-24T07:25:17.331Z,84.64
2022-11-24T07:26:08.257Z,84.15
2022-11-24T07:26:54.807Z,83.89
2022-11-24T07:27:41.423Z,84.15
2022-11-24T07:28:28.010Z,84.35
2022-11-24T07:29:14.913Z,84.66
2022-11-24T07:30:01.973Z,84.84
2022-11-24T07:30:51.035Z,84.95
2022-11-24T07:31:38.133Z,85.01
2022-11-24T07:32:24.773Z,85.39
2022-11-24T07:33:11.475Z,85.75
2022-11-24T07:33:58.029Z,85.87
2022-11-24T07:34:44.465Z,86.16
2022-11-24T07:35:31.136Z,85.68
2022-11-24T07:36:18.670Z,86.03
2022-11-24T07:37:05.274Z,86.26
2022-11-24T07:37:55.105Z,86.76
2022-11-24T07:38:41.700Z,87.24
2022-11-24T07:39:28.596Z,87.49
2022-11-24T07:40:15.294Z,87.71
2022-11-24T07:41:09.483Z,87.85
2022-11-24T07:41:55.983Z,87.97
2022-11-24T07:42:42.861Z,88.03
2022-11-24T07:43:32.710Z,88.27
2022-11-24T07:44:19.480Z,88.52
2022-11-24T07:45:06.461Z,88.28
2022-11-24T07:45:53.321Z,88.64
2022-11-24T07:46:39.896Z,88.36
2022-11-24T07:47:26.524Z,88.38
2022-11-24T07:48:13.004Z,88.67
2022-11-24T07:48:59.458Z,88.52
2022-11-24T07:49:45.891Z,88.73
2022-11-24T07:50:32.374Z,88.63
2022-11-24T07:51:18.898Z,88.76
2022-11-24T07:52:05.456Z,88.83
2022-11-24T07:52:51.931Z,88.70
2022-11-24T07:53:38.456Z,88.38
2022-11-24T07:54:24.871Z,88.36
2022-11-24T07:55:11.655Z,88.49
2022-11-24T07:56:00.582Z,88.48
2022-11-24T07:56:49.842Z,88.59
2022-11-24T07:57:37.008Z,88.79
2022-11-24T07:58:25.541Z,88.70
2022-11-24T07:59:15.501Z,88.74
2022-11-24T08:00:03.627Z,88.89
2022-11-24T08:00:54.007Z,88.64
2022-11-24T08:01:41.030Z,88.67
2022-11-24T08:02:27.813Z,88.74
2022-11-24T08:03:14.668Z,88.55
2022-11-24T08:04:01.994Z,88.31
2022-11-24T08:04:48.632Z,88.20
2022-11-24T08:05:38.400Z,88.56
2022-11-24T08:06:38.625Z,88.62
2022-11-24T08:07:27.477Z,88.02
2022-11-24T08:08:13.920Z,88.01
2022-11-24T08:09:00.486Z,87.38
2022-11-24T08:09:47.004Z,86.72
2022-11-24T08:10:33.640Z,86.51
2022-11-24T08:11:20.215Z,86.61
2022-11-24T08:12:07.168Z,86.14
2022-11-24T08:12:53.856Z,86.57
2022-11-24T08:13:41.446Z,86.13
2022-11-24T08:14:27.850Z,84.87
2022-11-24T08:15:14.527Z,83.11
2022-11-24T08:16:07.986Z,83.04
2022-11-24T08:16:54.506Z,83.03
2022-11-24T08:17:40.938Z,83.12
2022-11-24T08:18:28.052Z,82.66
2022-11-24T08:19:14.820Z,82.76
2022-11-24T08:20:01.348Z,82.60
2022-11-24T08:20:48.032Z,82.84
2022-11-24T08:21:34.531Z,82.98
2022-11-24T08:22:21.494Z,82.56
2022-11-24T08:23:09.018Z,82.73
2022-11-24T08:23:56.643Z,82.71
2022-11-24T08:24:47.042Z,82.67
2022-11-24T08:25:33.577Z,82.70
2022-11-24T08:26:20.111Z,81.49
2022-11-24T08:27:06.540Z,81.43
2022-11-24T08:27:53.066Z,81.49
2022-11-24T08:28:39.808Z,81.69
2022-11-24T08:29:29.587Z,81.24
2022-11-24T08:30:16.462Z,81.08
2022-11-24T08:31:09.158Z,81.79
2022-11-24T08:31:57.288Z,81.32
2022-11-24T08:32:43.752Z,81.25
2022-11-24T08:33:30.700Z,81.39
2022-11-24T08:34:17.173Z,81.10
2022-11-24T08:35:18.402Z,80.96
2022-11-24T08:36:08.292Z,81.65
2022-11-24T08:36:54.938Z,81.25
2022-11-24T08:37:41.591Z,81.89
2022-11-24T08:38:28.035Z,81.12
2022-11-24T08:39:14.487Z,81.28
2022-11-24T08:40:00.897Z,81.08
2022-11-24T08:40:47.356Z,80.71
2022-11-24T08:41:34.151Z,80.60
2022-11-24T08:42:20.804Z,79.92
2022-11-24T08:43:07.536Z,79.78
2022-11-24T08:43:55.436Z,80.21
2022-11-24T08:44:42.974Z,80.06
2022-11-24T08:45:30.747Z,80.36
2022-11-24T08:46:18.988Z,80.08
2022-11-24T08:47:05.723Z,80.01
2022-11-24T08:47:57.197Z,80.33
2022-11-24T08:48:54.808Z,79.69
2022-11-24T08:49:41.346Z,79.18
2022-11-24T08:50:27.922Z,79.89
2022-11-24T08:51:17.129Z,79.77
2022-11-24T08:52:05.825Z,79.69
2022-11-24T08:52:53.605Z,80.23
2022-11-24T08:53:41.768Z,79.92
2022-11-24T08:54:28.536Z,80.08
2022-11-24T08:55:15.164Z,80.29
2022-11-24T08:56:02.905Z,80.67
2022-11-24T08:56:49.674Z,79.89
2022-11-24T08:57:36.230Z,80.57
2022-11-24T08:58:22.726Z,80.25
2022-11-24T08:59:13.957Z,79.23
2022-11-24T09:00:00.655Z,78.88
2022-11-24T09:00:47.099Z,78.74
2022-11-24T09:01:34.278Z,78.52
2022-11-24T09:02:20.896Z,78.36
2022-11-24T09:03:07.317Z,78.78
2022-11-24T09:03:54.115Z,78.59
2022-11-24T09:04:40.755Z,78.61
2022-11-24T09:05:53.246Z,78.54
2022-11-24T09:06:34.095Z,78.45
2022-11-24T09:07:20.723Z,78.75
2022-11-24T09:08:07.371Z,77.96
2022-11-24T09:08:55.532Z,78.64
2022-11-24T09:09:42.081Z,78.43
2022-11-24T09:10:28.642Z,78.40
2022-11-24T09:11:17.103Z,78.45
2022-11-24T09:12:05.834Z,77.67
2022-11-24T09:12:55.352Z,78.30
2022-11-24T09:13:43.260Z,78.17
2022-11-24T09:14:29.830Z,78.82
2022-11-24T09:15:17.017Z,77.92
2022-11-24T09:16:06.364Z,77.73
2022-11-24T09:16:55.221Z,78.25
2022-11-24T09:17:51.751Z,77.25
2022-11-24T09:18:39.345Z,77.48
2022-11-24T09:19:25.795Z,77.76
2022-11-24T09:20:12.790Z,77.25
2022-11-24T09:21:09.589Z,76.96
2022-11-24T09:21:56.097Z,76.71
2022-11-24T09:22:43.105Z,76.53
2022-11-24T09:23:32.050Z,76.17
2022-11-24T09:24:18.549Z,76.67
2022-11-24T09:25:06.686Z,76.63
2022-11-24T09:25:53.518Z,76.05
2022-11-24T09:26:46.086Z,76.74
2022-11-24T09:27:34.265Z,76.58
2022-11-24T09:28:20.674Z,77.20
2022-11-24T09:29:09.921Z,76.51
2022-11-24T09:29:56.379Z,76.64
2022-11-24T09:30:42.897Z,76.82
2022-11-24T09:31:33.453Z,76.77
2022-11-24T09:32:19.998Z,76.97
2022-11-24T09:33:06.537Z,77.10
2022-11-24T09:33:53.701Z,76.66
2022-11-24T09:34:40.439Z,76.59
2022-11-24T09:35:26.946Z,76.10
2022-11-24T09:36:14.649Z,75.60
2022-11-24T09:37:01.208Z,75.71
2022-11-24T09:37:48.467Z,76.45
2022-11-24T09:38:35.725Z,76.08
2022-11-24T09:39:22.439Z,76.05
2022-11-24T09:40:13.170Z,75.64
2022-11-24T09:41:14.899Z,75.70
2022-11-24T09:42:42.925Z,75.53
2022-11-24T09:43:42.299Z,75.20
2022-11-24T09:44:53.410Z,75.31
2022-11-24T09:46:20.281Z,75.14
2022-11-24T09:47:21.445Z,73.86
2022-11-24T09:48:27.129Z,74.48
2022-11-24T09:49:22.250Z,74.42
2022-11-24T09:50:22.017Z,74.52
2022-11-24T09:51:14.245Z,74.63
2022-11-24T09:52:08.860Z,73.97
2022-11-24T09:53:03.460Z,72.52
2022-11-24T09:53:56.756Z,73.79
2022-11-24T09:54:57.529Z,73.71
2022-11-24T09:55:49.295Z,74.24
2022-11-24T09:56:41.532Z,74.17
2022-11-24T09:57:37.440Z,74.86
2022-11-24T09:58:48.166Z,74.98
2022-11-24T09:59:35.101Z,74.42
2022-11-24T10:00:21.750Z,74.49
2022-11-24T10:01:18.096Z,74.53
2022-11-24T10:02:12.676Z,74.67
2022-11-24T10:02:59.492Z,74.18
2022-11-24T10:03:52.911Z,73.48
2022-11-24T10:04:44.664Z,73.39
2022-11-24T10:05:36.138Z,72.46
2022-11-24T10:06:37.947Z,72.68
2022-11-24T10:07:38.100Z,72.80
2022-11-24T10:09:02.058Z,73.28
2022-11-24T10:10:11.383Z,73.09
2022-11-24T10:11:00.697Z,72.12
2022-11-24T10:12:14.853Z,72.62
2022-11-24T10:13:34.648Z,72.40
2022-11-24T10:14:36.331Z,73.63
2022-11-24T10:15:28.449Z,72.57
2022-11-24T10:16:47.093Z,72.46
2022-11-24T10:18:01.030Z,73.35
2022-11-24T10:19:01.260Z,73.24
2022-11-24T10:20:16.691Z,72.33
2022-11-24T10:21:18.199Z,71.99
2022-11-24T10:22:26.189Z,71.17
2022-11-24T10:23:21.586Z,71.86
2022-11-24T10:24:18.107Z,71.32
2022-11-24T10:25:19.338Z,70.35
2022-11-24T10:26:18.155Z,70.95
2022-11-24T10:27:39.791Z,71.25
2022-11-24T10:28:36.055Z,71.38
2022-11-24T10:29:41.383Z,71.56